sensor_id;sensor_type;location;lat;lon;timestamp;P1;durP1;ratioP1;P2;durP2;ratioP2
5638;SDS011;2841;44.526;11.360;2022-08-11T00:01:35;5.40;;;2.20;;
5638;SDS011;2841;44.526;11.360;2022-08-11T00:04:04;3.30;;;1.93;;
5638;SDS011;2841;44.526;11.360;2022-08-11T00:06:32;3.50;;;2.00;;
5638;SDS011;2841;44.526;11.360;2022-08-11T00:09:02;6.20;;;1.90;;
5638;SDS011;2841;44.526;11.360;2022-08-11T00:11:31;5.57;;;3.03;;
5638;SDS011;2841;44.526;11.360;2022-08-11T00:14:02;7.50;;;2.70;;
5638;SDS011;2841;44.526;11.360;2022-08-11T00:16:30;4.87;;;2.30;;
5638;SDS011;2841;44.526;11.360;2022-08-11T00:18:58;4.20;;;1.90;;
5638;SDS011;2841;44.526;11.360;2022-08-11T00:21:28;3.20;;;1.90;;
5638;SDS011;2841;44.526;11.360;2022-08-11T00:23:58;4.70;;;1.60;;
5638;SDS011;2841;44.526;11.360;2022-08-11T00:26:28;5.43;;;1.87;;
5638;SDS011;2841;44.526;11.360;2022-08-11T00:28:56;5.20;;;2.13;;
5638;SDS011;2841;44.526;11.360;2022-08-11T00:31:33;3.93;;;2.43;;
5638;SDS011;2841;44.526;11.360;2022-08-11T00:34:02;13.13;;;2.10;;
5638;SDS011;2841;44.526;11.360;2022-08-11T00:36:41;4.20;;;2.10;;
5638;SDS011;2841;44.526;11.360;2022-08-11T00:39:12;5.13;;;2.00;;
5638;SDS011;2841;44.526;11.360;2022-08-11T00:41:41;3.30;;;1.63;;
5638;SDS011;2841;44.526;11.360;2022-08-11T00:47:13;7.17;;;2.30;;
5638;SDS011;2841;44.526;11.360;2022-08-11T00:49:50;5.70;;;1.93;;
5638;SDS011;2841;44.526;11.360;2022-08-11T00:52:35;6.70;;;2.00;;
5638;SDS011;2841;44.526;11.360;2022-08-11T00:58:26;6.30;;;1.63;;
5638;SDS011;2841;44.526;11.360;2022-08-11T01:01:33;4.43;;;1.90;;
5638;SDS011;2841;44.526;11.360;2022-08-11T01:04:22;6.43;;;1.70;;
5638;SDS011;2841;44.526;11.360;2022-08-11T01:10:39;3.97;;;1.80;;
5638;SDS011;2841;44.526;11.360;2022-08-11T01:13:18;2.77;;;1.47;;
5638;SDS011;2841;44.526;11.360;2022-08-11T01:16:31;8.73;;;2.20;;
5638;SDS011;2841;44.526;11.360;2022-08-11T01:19:29;3.27;;;1.93;;
5638;SDS011;2841;44.526;11.360;2022-08-11T01:28:29;3.10;;;1.33;;
5638;SDS011;2841;44.526;11.360;2022-08-11T01:37:55;5.10;;;1.73;;
5638;SDS011;2841;44.526;11.360;2022-08-11T01:40:46;8.40;;;1.60;;
5638;SDS011;2841;44.526;11.360;2022-08-11T01:43:43;2.60;;;1.30;;
5638;SDS011;2841;44.526;11.360;2022-08-11T01:46:51;3.17;;;1.70;;
5638;SDS011;2841;44.526;11.360;2022-08-11T01:49:25;2.90;;;1.70;;
5638;SDS011;2841;44.526;11.360;2022-08-11T01:52:03;2.57;;;1.37;;
5638;SDS011;2841;44.526;11.360;2022-08-11T01:54:40;9.73;;;1.97;;
5638;SDS011;2841;44.526;11.360;2022-08-11T01:57:18;2.80;;;1.33;;
5638;SDS011;2841;44.526;11.360;2022-08-11T01:59:55;4.90;;;2.07;;
5638;SDS011;2841;44.526;11.360;2022-08-11T02:02:30;5.80;;;1.60;;
5638;SDS011;2841;44.526;11.360;2022-08-11T02:05:43;6.03;;;1.57;;
5638;SDS011;2841;44.526;11.360;2022-08-11T02:08:26;4.90;;;1.87;;
5638;SDS011;2841;44.526;11.360;2022-08-11T02:11:14;4.20;;;2.37;;
5638;SDS011;2841;44.526;11.360;2022-08-11T02:13:57;5.07;;;2.00;;
5638;SDS011;2841;44.526;11.360;2022-08-11T02:16:41;3.47;;;1.30;;
5638;SDS011;2841;44.526;11.360;2022-08-11T02:19:22;10.73;;;1.87;;
5638;SDS011;2841;44.526;11.360;2022-08-11T02:22:18;2.90;;;1.50;;
5638;SDS011;2841;44.526;11.360;2022-08-11T02:25:19;8.70;;;2.50;;
5638;SDS011;2841;44.526;11.360;2022-08-11T02:27:52;2.50;;;1.50;;
5638;SDS011;2841;44.526;11.360;2022-08-11T02:30:27;3.27;;;1.70;;
5638;SDS011;2841;44.526;11.360;2022-08-11T02:33:04;4.30;;;2.37;;
5638;SDS011;2841;44.526;11.360;2022-08-11T02:35:50;4.87;;;2.00;;
5638;SDS011;2841;44.526;11.360;2022-08-11T02:38:24;17.37;;;2.13;;
5638;SDS011;2841;44.526;11.360;2022-08-11T02:40:59;8.90;;;1.30;;
5638;SDS011;2841;44.526;11.360;2022-08-11T02:44:01;3.40;;;1.40;;
5638;SDS011;2841;44.526;11.360;2022-08-11T02:46:42;8.33;;;2.00;;
5638;SDS011;2841;44.526;11.360;2022-08-11T02:49:18;10.67;;;2.13;;
5638;SDS011;2841;44.526;11.360;2022-08-11T02:52:22;2.20;;;1.30;;
5638;SDS011;2841;44.526;11.360;2022-08-11T02:57:50;3.50;;;1.70;;
5638;SDS011;2841;44.526;11.360;2022-08-11T03:00:23;2.93;;;1.47;;
5638;SDS011;2841;44.526;11.360;2022-08-11T03:02:54;8.80;;;2.67;;
5638;SDS011;2841;44.526;11.360;2022-08-11T03:05:47;5.50;;;1.90;;
5638;SDS011;2841;44.526;11.360;2022-08-11T03:08:24;3.33;;;1.67;;
5638;SDS011;2841;44.526;11.360;2022-08-11T03:11:03;2.67;;;1.60;;
5638;SDS011;2841;44.526;11.360;2022-08-11T03:13:58;2.87;;;1.60;;
5638;SDS011;2841;44.526;11.360;2022-08-11T03:16:53;3.80;;;1.87;;
5638;SDS011;2841;44.526;11.360;2022-08-11T03:19:27;5.20;;;2.43;;
5638;SDS011;2841;44.526;11.360;2022-08-11T03:22:12;7.40;;;2.03;;
5638;SDS011;2841;44.526;11.360;2022-08-11T03:24:55;5.10;;;1.60;;
5638;SDS011;2841;44.526;11.360;2022-08-11T03:27:30;7.30;;;3.03;;
5638;SDS011;2841;44.526;11.360;2022-08-11T03:30:10;3.17;;;1.63;;
5638;SDS011;2841;44.526;11.360;2022-08-11T03:32:45;5.50;;;2.20;;
5638;SDS011;2841;44.526;11.360;2022-08-11T03:35:44;5.30;;;1.73;;
5638;SDS011;2841;44.526;11.360;2022-08-11T03:38:20;5.80;;;2.43;;
5638;SDS011;2841;44.526;11.360;2022-08-11T03:40:51;17.30;;;1.63;;
5638;SDS011;2841;44.526;11.360;2022-08-11T03:43:52;4.30;;;1.83;;
5638;SDS011;2841;44.526;11.360;2022-08-11T03:46:31;2.20;;;1.33;;
5638;SDS011;2841;44.526;11.360;2022-08-11T03:49:13;2.83;;;1.60;;
5638;SDS011;2841;44.526;11.360;2022-08-11T03:51:51;3.80;;;1.63;;
5638;SDS011;2841;44.526;11.360;2022-08-11T03:54:25;3.33;;;1.53;;
5638;SDS011;2841;44.526;11.360;2022-08-11T04:03:21;8.10;;;1.80;;
5638;SDS011;2841;44.526;11.360;2022-08-11T04:09:04;5.47;;;2.20;;
5638;SDS011;2841;44.526;11.360;2022-08-11T04:15:10;5.10;;;1.63;;
5638;SDS011;2841;44.526;11.360;2022-08-11T04:24:26;4.23;;;2.20;;
5638;SDS011;2841;44.526;11.360;2022-08-11T04:27:26;11.30;;;2.00;;
5638;SDS011;2841;44.526;11.360;2022-08-11T04:30:08;6.33;;;1.93;;
5638;SDS011;2841;44.526;11.360;2022-08-11T04:32:51;8.30;;;2.80;;
5638;SDS011;2841;44.526;11.360;2022-08-11T04:35:45;4.83;;;1.90;;
5638;SDS011;2841;44.526;11.360;2022-08-11T04:38:32;5.97;;;2.70;;
5638;SDS011;2841;44.526;11.360;2022-08-11T04:41:19;6.83;;;1.80;;
5638;SDS011;2841;44.526;11.360;2022-08-11T04:47:52;5.93;;;1.67;;
5638;SDS011;2841;44.526;11.360;2022-08-11T04:51:06;9.57;;;2.37;;
5638;SDS011;2841;44.526;11.360;2022-08-11T04:54:17;3.93;;;1.90;;
5638;SDS011;2841;44.526;11.360;2022-08-11T04:57:15;4.00;;;1.80;;
5638;SDS011;2841;44.526;11.360;2022-08-11T05:00:06;6.20;;;2.20;;
5638;SDS011;2841;44.526;11.360;2022-08-11T05:03:08;6.93;;;2.10;;
5638;SDS011;2841;44.526;11.360;2022-08-11T05:06:05;4.53;;;1.60;;
5638;SDS011;2841;44.526;11.360;2022-08-11T05:12:18;11.27;;;2.30;;
5638;SDS011;2841;44.526;11.360;2022-08-11T05:14:53;3.47;;;2.00;;
5638;SDS011;2841;44.526;11.360;2022-08-11T05:17:40;5.70;;;2.50;;
5638;SDS011;2841;44.526;11.360;2022-08-11T05:20:39;19.60;;;1.90;;
5638;SDS011;2841;44.526;11.360;2022-08-11T05:23:31;2.47;;;1.50;;
5638;SDS011;2841;44.526;11.360;2022-08-11T05:26:19;2.20;;;1.10;;
5638;SDS011;2841;44.526;11.360;2022-08-11T05:29:22;5.90;;;2.03;;
5638;SDS011;2841;44.526;11.360;2022-08-11T05:32:10;7.20;;;2.13;;
5638;SDS011;2841;44.526;11.360;2022-08-11T05:34:57;7.20;;;2.07;;
5638;SDS011;2841;44.526;11.360;2022-08-11T05:37:30;3.07;;;1.93;;
5638;SDS011;2841;44.526;11.360;2022-08-11T05:40:04;8.43;;;1.97;;
5638;SDS011;2841;44.526;11.360;2022-08-11T05:42:54;4.17;;;2.03;;
5638;SDS011;2841;44.526;11.360;2022-08-11T05:45:41;4.40;;;1.80;;
5638;SDS011;2841;44.526;11.360;2022-08-11T05:48:31;3.30;;;1.60;;
5638;SDS011;2841;44.526;11.360;2022-08-11T05:51:17;3.13;;;1.77;;
5638;SDS011;2841;44.526;11.360;2022-08-11T05:54:03;3.77;;;1.60;;
5638;SDS011;2841;44.526;11.360;2022-08-11T05:56:52;3.10;;;1.70;;
5638;SDS011;2841;44.526;11.360;2022-08-11T05:59:23;5.60;;;2.20;;
5638;SDS011;2841;44.526;11.360;2022-08-11T06:01:52;4.73;;;1.43;;
5638;SDS011;2841;44.526;11.360;2022-08-11T06:04:25;4.83;;;1.87;;
5638;SDS011;2841;44.526;11.360;2022-08-11T06:06:55;5.83;;;3.03;;
5638;SDS011;2841;44.526;11.360;2022-08-11T06:09:24;6.77;;;1.97;;
5638;SDS011;2841;44.526;11.360;2022-08-11T06:11:53;3.00;;;1.87;;
5638;SDS011;2841;44.526;11.360;2022-08-11T06:14:26;2.93;;;1.47;;
5638;SDS011;2841;44.526;11.360;2022-08-11T06:16:55;3.40;;;1.70;;
5638;SDS011;2841;44.526;11.360;2022-08-11T06:19:30;4.10;;;2.53;;
5638;SDS011;2841;44.526;11.360;2022-08-11T06:22:00;5.00;;;1.50;;
5638;SDS011;2841;44.526;11.360;2022-08-11T06:24:28;4.33;;;1.83;;
5638;SDS011;2841;44.526;11.360;2022-08-11T06:26:57;3.40;;;1.90;;
5638;SDS011;2841;44.526;11.360;2022-08-11T06:29:26;5.70;;;1.80;;
5638;SDS011;2841;44.526;11.360;2022-08-11T06:31:55;3.80;;;1.93;;
5638;SDS011;2841;44.526;11.360;2022-08-11T06:34:32;6.37;;;2.03;;
5638;SDS011;2841;44.526;11.360;2022-08-11T06:37:14;3.00;;;1.80;;
5638;SDS011;2841;44.526;11.360;2022-08-11T06:39:47;5.20;;;1.87;;
5638;SDS011;2841;44.526;11.360;2022-08-11T06:42:26;3.87;;;1.70;;
5638;SDS011;2841;44.526;11.360;2022-08-11T06:45:15;4.70;;;2.20;;
5638;SDS011;2841;44.526;11.360;2022-08-11T06:47:51;3.07;;;1.50;;
5638;SDS011;2841;44.526;11.360;2022-08-11T06:50:20;7.80;;;2.00;;
5638;SDS011;2841;44.526;11.360;2022-08-11T06:53:05;7.53;;;2.20;;
5638;SDS011;2841;44.526;11.360;2022-08-11T06:55:34;6.80;;;2.00;;
5638;SDS011;2841;44.526;11.360;2022-08-11T06:58:21;3.53;;;1.80;;
5638;SDS011;2841;44.526;11.360;2022-08-11T07:01:10;5.70;;;2.17;;
5638;SDS011;2841;44.526;11.360;2022-08-11T07:03:42;16.60;;;2.17;;
5638;SDS011;2841;44.526;11.360;2022-08-11T07:06:25;4.30;;;2.10;;
5638;SDS011;2841;44.526;11.360;2022-08-11T07:09:08;4.10;;;1.70;;
5638;SDS011;2841;44.526;11.360;2022-08-11T07:12:19;5.67;;;2.10;;
5638;SDS011;2841;44.526;11.360;2022-08-11T07:15:29;3.73;;;2.00;;
5638;SDS011;2841;44.526;11.360;2022-08-11T07:18:12;2.77;;;1.57;;
5638;SDS011;2841;44.526;11.360;2022-08-11T07:21:14;4.80;;;1.77;;
5638;SDS011;2841;44.526;11.360;2022-08-11T07:24:10;3.70;;;1.60;;
5638;SDS011;2841;44.526;11.360;2022-08-11T07:27:00;3.03;;;1.50;;
5638;SDS011;2841;44.526;11.360;2022-08-11T07:30:06;4.63;;;1.37;;
5638;SDS011;2841;44.526;11.360;2022-08-11T07:32:36;8.20;;;1.90;;
5638;SDS011;2841;44.526;11.360;2022-08-11T07:35:16;4.20;;;1.73;;
5638;SDS011;2841;44.526;11.360;2022-08-11T07:37:47;23.67;;;2.07;;
5638;SDS011;2841;44.526;11.360;2022-08-11T07:40:19;5.53;;;1.90;;
5638;SDS011;2841;44.526;11.360;2022-08-11T07:42:48;2.60;;;1.70;;
5638;SDS011;2841;44.526;11.360;2022-08-11T07:45:15;4.80;;;1.83;;
5638;SDS011;2841;44.526;11.360;2022-08-11T07:48:01;8.33;;;1.43;;
5638;SDS011;2841;44.526;11.360;2022-08-11T07:50:47;5.43;;;1.67;;
5638;SDS011;2841;44.526;11.360;2022-08-11T07:53:32;5.07;;;1.80;;
5638;SDS011;2841;44.526;11.360;2022-08-11T07:56:02;4.37;;;1.53;;
5638;SDS011;2841;44.526;11.360;2022-08-11T07:58:30;11.07;;;2.57;;
5638;SDS011;2841;44.526;11.360;2022-08-11T08:01:18;4.10;;;1.50;;
5638;SDS011;2841;44.526;11.360;2022-08-11T08:04:05;9.30;;;1.70;;
5638;SDS011;2841;44.526;11.360;2022-08-11T08:06:53;6.80;;;1.47;;
5638;SDS011;2841;44.526;11.360;2022-08-11T08:09:38;2.13;;;1.20;;
5638;SDS011;2841;44.526;11.360;2022-08-11T08:12:24;3.53;;;1.60;;
5638;SDS011;2841;44.526;11.360;2022-08-11T08:15:10;2.80;;;1.30;;
5638;SDS011;2841;44.526;11.360;2022-08-11T08:17:56;6.20;;;1.87;;
5638;SDS011;2841;44.526;11.360;2022-08-11T08:20:27;11.10;;;1.40;;
5638;SDS011;2841;44.526;11.360;2022-08-11T08:22:58;17.83;;;1.70;;
5638;SDS011;2841;44.526;11.360;2022-08-11T08:25:26;4.90;;;1.53;;
5638;SDS011;2841;44.526;11.360;2022-08-11T08:27:56;5.50;;;1.57;;
5638;SDS011;2841;44.526;11.360;2022-08-11T08:30:25;6.03;;;2.23;;
5638;SDS011;2841;44.526;11.360;2022-08-11T08:33:11;2.97;;;1.60;;
5638;SDS011;2841;44.526;11.360;2022-08-11T08:35:40;3.50;;;1.80;;
5638;SDS011;2841;44.526;11.360;2022-08-11T08:38:09;5.47;;;1.87;;
5638;SDS011;2841;44.526;11.360;2022-08-11T08:40:37;2.80;;;1.30;;
5638;SDS011;2841;44.526;11.360;2022-08-11T08:43:08;2.87;;;1.70;;
5638;SDS011;2841;44.526;11.360;2022-08-11T08:45:39;4.20;;;2.27;;
5638;SDS011;2841;44.526;11.360;2022-08-11T08:48:10;3.33;;;1.80;;
5638;SDS011;2841;44.526;11.360;2022-08-11T08:50:42;2.20;;;1.17;;
5638;SDS011;2841;44.526;11.360;2022-08-11T08:53:32;3.90;;;1.60;;
5638;SDS011;2841;44.526;11.360;2022-08-11T08:56:01;5.50;;;1.90;;
5638;SDS011;2841;44.526;11.360;2022-08-11T08:58:29;5.60;;;1.90;;
5638;SDS011;2841;44.526;11.360;2022-08-11T09:00:58;2.60;;;1.40;;
5638;SDS011;2841;44.526;11.360;2022-08-11T09:03:27;3.43;;;1.20;;
5638;SDS011;2841;44.526;11.360;2022-08-11T09:05:54;3.50;;;1.50;;
5638;SDS011;2841;44.526;11.360;2022-08-11T09:08:22;9.27;;;1.60;;
5638;SDS011;2841;44.526;11.360;2022-08-11T09:10:54;2.87;;;1.93;;
5638;SDS011;2841;44.526;11.360;2022-08-11T09:13:40;4.20;;;1.50;;
5638;SDS011;2841;44.526;11.360;2022-08-11T09:16:11;4.63;;;1.17;;
5638;SDS011;2841;44.526;11.360;2022-08-11T09:18:38;3.60;;;1.30;;
5638;SDS011;2841;44.526;11.360;2022-08-11T09:21:09;2.40;;;1.17;;
5638;SDS011;2841;44.526;11.360;2022-08-11T09:23:38;3.60;;;1.57;;
5638;SDS011;2841;44.526;11.360;2022-08-11T09:26:25;2.93;;;1.60;;
5638;SDS011;2841;44.526;11.360;2022-08-11T09:29:25;3.23;;;1.80;;
5638;SDS011;2841;44.526;11.360;2022-08-11T09:31:52;2.70;;;1.30;;
5638;SDS011;2841;44.526;11.360;2022-08-11T09:34:21;3.83;;;1.80;;
5638;SDS011;2841;44.526;11.360;2022-08-11T09:36:49;3.73;;;1.60;;
5638;SDS011;2841;44.526;11.360;2022-08-11T09:39:35;3.73;;;1.40;;
5638;SDS011;2841;44.526;11.360;2022-08-11T09:42:22;9.97;;;1.80;;
5638;SDS011;2841;44.526;11.360;2022-08-11T09:45:11;4.37;;;2.07;;
5638;SDS011;2841;44.526;11.360;2022-08-11T09:47:38;2.97;;;1.70;;
5638;SDS011;2841;44.526;11.360;2022-08-11T09:50:08;4.40;;;1.17;;
5638;SDS011;2841;44.526;11.360;2022-08-11T09:52:37;5.53;;;1.20;;
5638;SDS011;2841;44.526;11.360;2022-08-11T09:55:06;5.97;;;2.07;;
5638;SDS011;2841;44.526;11.360;2022-08-11T09:57:38;15.20;;;1.70;;
5638;SDS011;2841;44.526;11.360;2022-08-11T10:00:27;3.83;;;1.13;;
5638;SDS011;2841;44.526;11.360;2022-08-11T10:02:55;5.90;;;1.20;;
5638;SDS011;2841;44.526;11.360;2022-08-11T10:05:26;2.43;;;1.47;;
5638;SDS011;2841;44.526;11.360;2022-08-11T10:08:12;2.33;;;1.10;;
5638;SDS011;2841;44.526;11.360;2022-08-11T10:10:42;4.40;;;1.33;;
5638;SDS011;2841;44.526;11.360;2022-08-11T10:13:13;2.03;;;1.20;;
5638;SDS011;2841;44.526;11.360;2022-08-11T10:15:50;26.73;;;1.57;;
5638;SDS011;2841;44.526;11.360;2022-08-11T10:18:21;2.70;;;1.33;;
5638;SDS011;2841;44.526;11.360;2022-08-11T10:21:14;2.37;;;1.30;;
5638;SDS011;2841;44.526;11.360;2022-08-11T10:23:44;2.40;;;1.47;;
5638;SDS011;2841;44.526;11.360;2022-08-11T10:26:29;14.90;;;2.00;;
5638;SDS011;2841;44.526;11.360;2022-08-11T10:29:19;2.10;;;0.90;;
5638;SDS011;2841;44.526;11.360;2022-08-11T10:32:05;3.70;;;1.20;;
5638;SDS011;2841;44.526;11.360;2022-08-11T10:34:52;4.27;;;1.17;;
5638;SDS011;2841;44.526;11.360;2022-08-11T10:37:20;2.10;;;1.00;;
5638;SDS011;2841;44.526;11.360;2022-08-11T10:39:49;9.33;;;1.37;;
5638;SDS011;2841;44.526;11.360;2022-08-11T10:42:20;7.80;;;1.63;;
5638;SDS011;2841;44.526;11.360;2022-08-11T10:45:07;3.10;;;1.30;;
5638;SDS011;2841;44.526;11.360;2022-08-11T10:47:55;2.27;;;1.30;;
5638;SDS011;2841;44.526;11.360;2022-08-11T10:50:22;5.43;;;1.03;;
5638;SDS011;2841;44.526;11.360;2022-08-11T10:53:08;3.20;;;1.03;;
5638;SDS011;2841;44.526;11.360;2022-08-11T10:55:53;2.93;;;0.97;;
5638;SDS011;2841;44.526;11.360;2022-08-11T10:58:38;2.70;;;0.90;;
5638;SDS011;2841;44.526;11.360;2022-08-11T11:01:15;2.70;;;1.17;;
5638;SDS011;2841;44.526;11.360;2022-08-11T11:03:48;5.40;;;1.23;;
5638;SDS011;2841;44.526;11.360;2022-08-11T11:06:20;4.63;;;1.00;;
5638;SDS011;2841;44.526;11.360;2022-08-11T11:08:55;3.10;;;1.10;;
5638;SDS011;2841;44.526;11.360;2022-08-11T11:11:26;3.00;;;1.20;;
5638;SDS011;2841;44.526;11.360;2022-08-11T11:14:09;5.40;;;1.23;;
5638;SDS011;2841;44.526;11.360;2022-08-11T11:16:58;3.17;;;1.40;;
5638;SDS011;2841;44.526;11.360;2022-08-11T11:19:44;2.57;;;1.10;;
5638;SDS011;2841;44.526;11.360;2022-08-11T11:22:14;11.00;;;1.17;;
5638;SDS011;2841;44.526;11.360;2022-08-11T11:25:03;2.97;;;1.07;;
5638;SDS011;2841;44.526;11.360;2022-08-11T11:27:44;5.23;;;1.07;;
5638;SDS011;2841;44.526;11.360;2022-08-11T11:30:19;4.77;;;1.13;;
5638;SDS011;2841;44.526;11.360;2022-08-11T11:32:57;5.87;;;1.50;;
5638;SDS011;2841;44.526;11.360;2022-08-11T11:35:31;5.00;;;1.43;;
5638;SDS011;2841;44.526;11.360;2022-08-11T11:38:04;3.20;;;1.30;;
5638;SDS011;2841;44.526;11.360;2022-08-11T11:40:33;2.63;;;1.33;;
5638;SDS011;2841;44.526;11.360;2022-08-11T11:43:02;2.70;;;1.30;;
5638;SDS011;2841;44.526;11.360;2022-08-11T11:45:30;3.37;;;1.60;;
5638;SDS011;2841;44.526;11.360;2022-08-11T11:47:59;3.07;;;1.30;;
5638;SDS011;2841;44.526;11.360;2022-08-11T11:50:27;2.43;;;1.37;;
5638;SDS011;2841;44.526;11.360;2022-08-11T11:52:57;5.13;;;1.27;;
5638;SDS011;2841;44.526;11.360;2022-08-11T11:55:25;2.30;;;1.37;;
5638;SDS011;2841;44.526;11.360;2022-08-11T11:57:53;2.40;;;1.30;;
5638;SDS011;2841;44.526;11.360;2022-08-11T12:00:38;2.23;;;1.27;;
5638;SDS011;2841;44.526;11.360;2022-08-11T12:03:25;3.13;;;1.10;;
5638;SDS011;2841;44.526;11.360;2022-08-11T12:05:52;2.07;;;0.80;;
5638;SDS011;2841;44.526;11.360;2022-08-11T12:08:20;1.90;;;0.80;;
5638;SDS011;2841;44.526;11.360;2022-08-11T12:10:50;6.10;;;1.20;;
5638;SDS011;2841;44.526;11.360;2022-08-11T12:13:39;4.80;;;1.17;;
5638;SDS011;2841;44.526;11.360;2022-08-11T12:16:06;3.40;;;1.03;;
5638;SDS011;2841;44.526;11.360;2022-08-11T12:18:36;3.10;;;1.20;;
5638;SDS011;2841;44.526;11.360;2022-08-11T12:21:05;2.97;;;0.90;;
5638;SDS011;2841;44.526;11.360;2022-08-11T12:23:33;2.10;;;0.90;;
5638;SDS011;2841;44.526;11.360;2022-08-11T12:26:19;4.13;;;0.97;;
5638;SDS011;2841;44.526;11.360;2022-08-11T12:29:05;2.40;;;1.20;;
5638;SDS011;2841;44.526;11.360;2022-08-11T12:31:34;1.80;;;0.90;;
5638;SDS011;2841;44.526;11.360;2022-08-11T12:34:05;2.90;;;1.10;;
5638;SDS011;2841;44.526;11.360;2022-08-11T12:36:34;2.70;;;1.10;;
5638;SDS011;2841;44.526;11.360;2022-08-11T12:39:04;2.20;;;1.10;;
5638;SDS011;2841;44.526;11.360;2022-08-11T12:41:33;3.63;;;1.03;;
5638;SDS011;2841;44.526;11.360;2022-08-11T12:44:18;3.60;;;1.20;;
5638;SDS011;2841;44.526;11.360;2022-08-11T12:47:06;1.80;;;0.97;;
5638;SDS011;2841;44.526;11.360;2022-08-11T12:49:36;3.13;;;1.50;;
5638;SDS011;2841;44.526;11.360;2022-08-11T12:52:26;3.07;;;1.17;;
5638;SDS011;2841;44.526;11.360;2022-08-11T12:54:59;2.57;;;1.33;;
5638;SDS011;2841;44.526;11.360;2022-08-11T12:57:33;3.97;;;1.10;;
5638;SDS011;2841;44.526;11.360;2022-08-11T13:00:19;3.10;;;1.30;;
5638;SDS011;2841;44.526;11.360;2022-08-11T13:03:05;2.00;;;0.70;;
5638;SDS011;2841;44.526;11.360;2022-08-11T13:05:54;5.80;;;1.20;;
5638;SDS011;2841;44.526;11.360;2022-08-11T13:08:23;2.57;;;1.00;;
5638;SDS011;2841;44.526;11.360;2022-08-11T13:10:53;2.17;;;0.90;;
5638;SDS011;2841;44.526;11.360;2022-08-11T13:13:40;3.83;;;1.30;;
5638;SDS011;2841;44.526;11.360;2022-08-11T13:16:08;2.60;;;1.27;;
5638;SDS011;2841;44.526;11.360;2022-08-11T13:18:36;2.00;;;1.00;;
5638;SDS011;2841;44.526;11.360;2022-08-11T13:21:08;2.13;;;1.20;;
5638;SDS011;2841;44.526;11.360;2022-08-11T13:23:35;2.70;;;1.10;;
5638;SDS011;2841;44.526;11.360;2022-08-11T13:26:05;2.00;;;1.03;;
5638;SDS011;2841;44.526;11.360;2022-08-11T13:28:33;2.70;;;1.30;;
5638;SDS011;2841;44.526;11.360;2022-08-11T13:31:01;5.40;;;1.07;;
5638;SDS011;2841;44.526;11.360;2022-08-11T13:33:40;2.17;;;1.20;;
5638;SDS011;2841;44.526;11.360;2022-08-11T13:36:10;1.90;;;1.00;;
5638;SDS011;2841;44.526;11.360;2022-08-11T13:38:40;7.03;;;1.00;;
5638;SDS011;2841;44.526;11.360;2022-08-11T13:41:08;10.90;;;1.40;;
5638;SDS011;2841;44.526;11.360;2022-08-11T13:43:49;3.17;;;1.10;;
5638;SDS011;2841;44.526;11.360;2022-08-11T13:46:18;2.20;;;0.97;;
5638;SDS011;2841;44.526;11.360;2022-08-11T13:48:48;2.40;;;1.27;;
5638;SDS011;2841;44.526;11.360;2022-08-11T13:51:17;2.17;;;1.10;;
5638;SDS011;2841;44.526;11.360;2022-08-11T13:53:59;2.80;;;0.73;;
5638;SDS011;2841;44.526;11.360;2022-08-11T13:56:28;3.10;;;1.10;;
5638;SDS011;2841;44.526;11.360;2022-08-11T13:58:56;2.40;;;1.20;;
5638;SDS011;2841;44.526;11.360;2022-08-11T14:01:25;8.53;;;1.13;;
5638;SDS011;2841;44.526;11.360;2022-08-11T14:03:56;2.53;;;1.03;;
5638;SDS011;2841;44.526;11.360;2022-08-11T14:06:30;3.30;;;1.00;;
5638;SDS011;2841;44.526;11.360;2022-08-11T14:08:59;1.73;;;0.80;;
5638;SDS011;2841;44.526;11.360;2022-08-11T14:11:27;2.40;;;1.00;;
5638;SDS011;2841;44.526;11.360;2022-08-11T14:14:15;2.10;;;0.93;;
5638;SDS011;2841;44.526;11.360;2022-08-11T14:16:46;2.37;;;1.20;;
5638;SDS011;2841;44.526;11.360;2022-08-11T14:19:16;3.90;;;1.40;;
5638;SDS011;2841;44.526;11.360;2022-08-11T14:21:47;2.43;;;1.00;;
5638;SDS011;2841;44.526;11.360;2022-08-11T14:24:34;3.73;;;1.37;;
5638;SDS011;2841;44.526;11.360;2022-08-11T14:27:04;2.20;;;1.10;;
5638;SDS011;2841;44.526;11.360;2022-08-11T14:29:31;2.23;;;1.13;;
5638;SDS011;2841;44.526;11.360;2022-08-11T14:32:03;1.93;;;1.03;;
5638;SDS011;2841;44.526;11.360;2022-08-11T14:34:32;2.13;;;0.90;;
5638;SDS011;2841;44.526;11.360;2022-08-11T14:37:03;5.70;;;0.90;;
5638;SDS011;2841;44.526;11.360;2022-08-11T14:39:37;4.80;;;0.77;;
5638;SDS011;2841;44.526;11.360;2022-08-11T14:42:07;2.10;;;1.03;;
5638;SDS011;2841;44.526;11.360;2022-08-11T14:44:53;5.87;;;1.23;;
5638;SDS011;2841;44.526;11.360;2022-08-11T14:47:43;1.30;;;0.60;;
5638;SDS011;2841;44.526;11.360;2022-08-11T14:50:14;1.60;;;0.70;;
5638;SDS011;2841;44.526;11.360;2022-08-11T14:52:46;2.00;;;0.90;;
5638;SDS011;2841;44.526;11.360;2022-08-11T14:55:16;3.93;;;1.33;;
5638;SDS011;2841;44.526;11.360;2022-08-11T14:58:01;1.70;;;0.90;;
5638;SDS011;2841;44.526;11.360;2022-08-11T15:00:29;2.50;;;0.73;;
5638;SDS011;2841;44.526;11.360;2022-08-11T15:02:58;2.30;;;1.13;;
5638;SDS011;2841;44.526;11.360;2022-08-11T15:05:34;6.10;;;1.67;;
5638;SDS011;2841;44.526;11.360;2022-08-11T15:08:05;3.30;;;0.93;;
5638;SDS011;2841;44.526;11.360;2022-08-11T15:10:33;5.57;;;0.80;;
5638;SDS011;2841;44.526;11.360;2022-08-11T15:13:01;2.00;;;0.80;;
5638;SDS011;2841;44.526;11.360;2022-08-11T15:15:29;1.70;;;1.00;;
5638;SDS011;2841;44.526;11.360;2022-08-11T15:18:16;1.63;;;0.80;;
5638;SDS011;2841;44.526;11.360;2022-08-11T15:20:44;12.13;;;1.07;;
5638;SDS011;2841;44.526;11.360;2022-08-11T15:23:30;1.57;;;0.90;;
5638;SDS011;2841;44.526;11.360;2022-08-11T15:26:16;2.50;;;0.90;;
5638;SDS011;2841;44.526;11.360;2022-08-11T15:29:05;2.43;;;0.80;;
5638;SDS011;2841;44.526;11.360;2022-08-11T15:31:53;2.00;;;0.90;;
5638;SDS011;2841;44.526;11.360;2022-08-11T15:34:38;3.70;;;1.27;;
5638;SDS011;2841;44.526;11.360;2022-08-11T15:37:24;9.97;;;1.50;;
5638;SDS011;2841;44.526;11.360;2022-08-11T15:40:00;2.20;;;0.90;;
5638;SDS011;2841;44.526;11.360;2022-08-11T15:42:55;1.90;;;0.90;;
5638;SDS011;2841;44.526;11.360;2022-08-11T15:45:43;4.60;;;0.87;;
5638;SDS011;2841;44.526;11.360;2022-08-11T15:48:16;2.53;;;0.77;;
5638;SDS011;2841;44.526;11.360;2022-08-11T15:50:49;1.87;;;0.70;;
5638;SDS011;2841;44.526;11.360;2022-08-11T15:53:20;1.67;;;0.87;;
5638;SDS011;2841;44.526;11.360;2022-08-11T15:55:55;2.80;;;1.00;;
5638;SDS011;2841;44.526;11.360;2022-08-11T15:58:25;1.40;;;0.60;;
5638;SDS011;2841;44.526;11.360;2022-08-11T16:01:13;1.63;;;0.80;;
5638;SDS011;2841;44.526;11.360;2022-08-11T16:04:03;1.50;;;0.80;;
5638;SDS011;2841;44.526;11.360;2022-08-11T16:06:38;2.00;;;1.27;;
5638;SDS011;2841;44.526;11.360;2022-08-11T16:09:19;4.10;;;0.80;;
5638;SDS011;2841;44.526;11.360;2022-08-11T16:11:51;4.20;;;0.93;;
5638;SDS011;2841;44.526;11.360;2022-08-11T16:14:22;5.70;;;0.80;;
5638;SDS011;2841;44.526;11.360;2022-08-11T16:17:09;2.30;;;0.90;;
5638;SDS011;2841;44.526;11.360;2022-08-11T16:19:38;2.03;;;0.80;;
5638;SDS011;2841;44.526;11.360;2022-08-11T16:22:08;3.93;;;1.37;;
5638;SDS011;2841;44.526;11.360;2022-08-11T16:24:39;1.70;;;1.00;;
5638;SDS011;2841;44.526;11.360;2022-08-11T16:27:10;2.40;;;0.80;;
5638;SDS011;2841;44.526;11.360;2022-08-11T16:29:40;6.10;;;1.07;;
5638;SDS011;2841;44.526;11.360;2022-08-11T16:32:11;3.80;;;1.10;;
5638;SDS011;2841;44.526;11.360;2022-08-11T16:34:43;7.20;;;1.40;;
5638;SDS011;2841;44.526;11.360;2022-08-11T16:37:30;5.13;;;0.83;;
5638;SDS011;2841;44.526;11.360;2022-08-11T16:40:18;2.80;;;0.93;;
5638;SDS011;2841;44.526;11.360;2022-08-11T16:42:48;4.20;;;0.93;;
5638;SDS011;2841;44.526;11.360;2022-08-11T16:45:34;1.73;;;0.70;;
5638;SDS011;2841;44.526;11.360;2022-08-11T16:48:20;8.90;;;1.50;;
5638;SDS011;2841;44.526;11.360;2022-08-11T16:50:48;1.80;;;1.00;;
5638;SDS011;2841;44.526;11.360;2022-08-11T16:53:15;5.93;;;1.07;;
5638;SDS011;2841;44.526;11.360;2022-08-11T16:55:43;8.20;;;0.80;;
5638;SDS011;2841;44.526;11.360;2022-08-11T16:58:13;1.53;;;0.90;;
5638;SDS011;2841;44.526;11.360;2022-08-11T17:00:58;1.37;;;0.80;;